Time;durP1;ratioP1;P1;durP2;ratioP2;P2;SDS_P1;SDS_P2;PMS_P1;PMS_P2;Temp;Humidity;BMP_temperature;BMP_pressure;BME280_temperature;BME280_humidity;BME280_pressure;Samples;Min_cycle;Max_cycle;Signal;HPM_P1;HPM_P2
2023/03/21 00:01:12;;;;;;;27.23;9.30;;;11.70;99.90;;;;;;4992103;28;20124;-82
2023/03/21 00:03:38;;;;;;;22.02;8.60;;;11.70;99.90;;;;;;4991420;28;20456;-80
2023/03/21 00:06:18;;;;;;;13.55;7.57;;;11.70;99.90;;;;;;5073656;27;1681016;-80
2023/03/21 00:08:46;;;;;;;20.08;7.95;;;11.70;99.90;;;;;;5115160;27;20114;-81
2023/03/21 00:11:12;;;;;;;18.65;7.97;;;11.80;99.90;;;;;;5109415;28;20031;-80
2023/03/21 00:13:41;;;;;;;27.35;8.93;;;11.80;99.90;;;;;;5110974;28;20031;-78
2023/03/21 00:16:15;;;;;;;21.15;8.35;;;11.70;99.90;;;;;;5111846;28;20027;-79
2023/03/21 00:18:47;;;;;;;24.70;8.48;;;11.70;99.90;;;;;;5109758;28;20463;-80
2023/03/21 00:21:16;;;;;;;26.10;9.38;;;11.60;99.90;;;;;;5113118;28;20426;-78
2023/03/21 00:23:42;;;;;;;19.15;8.82;;;11.60;99.90;;;;;;5110258;28;20094;-78
2023/03/21 00:26:09;;;;;;;18.33;7.28;;;11.60;99.90;;;;;;5106321;28;20035;-79
2023/03/21 00:28:39;;;;;;;22.52;8.02;;;11.60;99.90;;;;;;5103980;28;20019;-78
2023/03/21 00:31:06;;;;;;;27.15;8.95;;;11.60;99.90;;;;;;5116137;28;20051;-79
2023/03/21 00:33:33;;;;;;;22.90;9.32;;;11.60;99.90;;;;;;5115826;27;20108;-78
2023/03/21 00:35:59;;;;;;;26.92;8.82;;;11.70;99.90;;;;;;5116492;27;20028;-80
2023/03/21 00:38:28;;;;;;;27.60;9.57;;;11.70;99.90;;;;;;5112332;27;20483;-80
2023/03/21 00:40:54;;;;;;;20.83;8.40;;;11.70;99.90;;;;;;5114917;28;20019;-80
2023/03/21 00:43:22;;;;;;;16.38;8.43;;;11.70;99.90;;;;;;5112923;28;20531;-81
2023/03/21 00:45:50;;;;;;;21.58;9.05;;;11.80;99.90;;;;;;5118681;28;20049;-78
2023/03/21 00:48:17;;;;;;;24.83;9.70;;;11.80;99.90;;;;;;5115846;28;20024;-79
2023/03/21 00:50:45;;;;;;;30.60;7.82;;;11.80;99.90;;;;;;5241912;22;20466;-79
2023/03/21 00:53:14;;;;;;;18.77;9.15;;;11.80;99.90;;;;;;5091009;28;20119;-80
2023/03/21 00:55:40;;;;;;;19.58;7.70;;;11.80;99.90;;;;;;5070178;28;20426;-79
2023/03/21 00:58:06;;;;;;;22.48;8.27;;;11.80;99.90;;;;;;5073475;28;20028;-80
2023/03/21 01:00:38;;;;;;;25.38;8.77;;;11.80;99.90;;;;;;5071034;28;20021;-80
2023/03/21 01:03:08;;;;;;;26.80;7.63;;;11.70;99.90;;;;;;5071588;28;20031;-81
2023/03/21 01:08:23;;;;;;;18.67;8.73;;;11.70;99.90;;;;;;5075682;28;20105;-81
2023/03/21 01:10:50;;;;;;;29.23;9.30;;;11.80;99.90;;;;;;5070643;28;20090;-80
2023/03/21 01:13:17;;;;;;;16.65;8.35;;;11.70;99.90;;;;;;5073666;28;20831;-81
2023/03/21 01:15:49;;;;;;;19.98;8.40;;;11.60;99.90;;;;;;5067868;28;20472;-80
2023/03/21 01:18:17;;;;;;;19.80;8.60;;;11.60;99.90;;;;;;5060016;28;20032;-80
2023/03/21 01:20:44;;;;;;;20.67;8.02;;;11.70;99.90;;;;;;5058709;28;20093;-80
2023/03/21 01:23:14;;;;;;;14.23;7.82;;;11.70;99.90;;;;;;5057313;28;20024;-80
2023/03/21 01:28:09;;;;;;;22.30;8.25;;;11.50;99.90;;;;;;5032803;28;20574;-79
2023/03/21 01:30:38;;;;;;;23.70;8.10;;;11.50;99.90;;;;;;5028068;28;20244;-80
2023/03/21 01:33:03;;;;;;;16.95;7.90;;;11.50;99.90;;;;;;5026536;28;20630;-80
2023/03/21 01:35:31;;;;;;;18.90;8.27;;;11.50;99.90;;;;;;5021190;28;20032;-80
2023/03/21 01:37:57;;;;;;;17.27;8.48;;;11.50;99.90;;;;;;5035969;28;20564;-81
2023/03/21 01:40:25;;;;;;;19.52;7.70;;;11.50;99.90;;;;;;5036962;28;20021;-81
2023/03/21 01:42:51;;;;;;;26.38;8.98;;;11.60;99.90;;;;;;5021433;28;20018;-81
2023/03/21 01:45:54;;;;;;;26.05;8.65;;;11.60;99.90;;;;;;5038751;28;20034;-80
2023/03/21 01:48:21;;;;;;;31.40;8.18;;;11.70;99.90;;;;;;5038996;28;20029;-81
2023/03/21 01:50:49;;;;;;;20.48;8.90;;;11.60;99.90;;;;;;5024477;28;20044;-81
2023/03/21 01:53:15;;;;;;;16.90;7.55;;;11.50;99.90;;;;;;5036295;28;20372;-79
2023/03/21 01:55:42;;;;;;;24.50;7.85;;;11.60;99.90;;;;;;5039313;28;20256;-79
2023/03/21 01:58:10;;;;;;;20.80;8.60;;;11.50;99.90;;;;;;5039098;28;20459;-80
2023/03/21 02:00:36;;;;;;;15.27;7.60;;;11.50;99.90;;;;;;5036539;28;20017;-80
2023/03/21 02:03:07;;;;;;;19.15;8.90;;;11.50;99.90;;;;;;5036903;28;20047;-80
2023/03/21 02:05:44;;;;;;;16.48;7.10;;;11.50;99.90;;;;;;5020462;28;20072;-80
2023/03/21 02:08:12;;;;;;;19.20;8.35;;;11.40;99.90;;;;;;5038519;28;20533;-80
2023/03/21 02:10:38;;;;;;;15.63;7.53;;;11.50;99.90;;;;;;5036327;28;20381;-80
2023/03/21 02:13:08;;;;;;;13.40;6.45;;;11.40;99.90;;;;;;5021334;28;20028;-80
2023/03/21 02:15:39;;;;;;;22.45;7.80;;;11.30;99.90;;;;;;5038435;28;20028;-79
2023/03/21 02:18:24;;;;;;;21.73;7.88;;;11.30;99.90;;;;;;5035269;28;20743;-79
2023/03/21 02:20:53;;;;;;;16.30;7.80;;;11.30;99.90;;;;;;5021574;28;20021;-80
2023/03/21 02:24:04;;;;;;;18.98;7.93;;;11.40;99.90;;;;;;5039729;28;20029;-81
2023/03/21 02:26:44;;;;;;;20.20;8.05;;;11.40;99.90;;;;;;5037878;28;20202;-80
2023/03/21 02:29:25;;;;;;;16.25;6.43;;;11.30;99.90;;;;;;5035127;28;20059;-78
2023/03/21 02:32:17;;;;;;;19.10;8.13;;;11.30;99.90;;;;;;5011432;28;20053;-78
2023/03/21 02:35:11;;;;;;;19.92;7.65;;;11.30;99.90;;;;;;5035266;28;20028;-78
2023/03/21 02:37:50;;;;;;;22.88;8.18;;;11.30;99.90;;;;;;5016850;28;20033;-77
2023/03/21 02:40:43;;;;;;;20.45;7.50;;;11.40;99.90;;;;;;5031783;28;20503;-79
2023/03/21 02:43:24;;;;;;;16.20;7.72;;;11.40;99.90;;;;;;5017529;28;20361;-81
2023/03/21 02:45:59;;;;;;;19.48;8.35;;;11.30;99.90;;;;;;5034283;28;20839;-80
2023/03/21 02:48:35;;;;;;;21.35;8.40;;;11.40;99.90;;;;;;5036062;28;20021;-78
2023/03/21 02:51:03;;;;;;;19.17;7.38;;;11.40;99.90;;;;;;5019433;28;20121;-77
2023/03/21 02:53:35;;;;;;;23.48;8.15;;;11.40;99.90;;;;;;5035553;28;20130;-81
2023/03/21 02:56:09;;;;;;;17.00;8.10;;;11.40;99.90;;;;;;5035781;28;20453;-77
2023/03/21 02:58:35;;;;;;;19.98;8.00;;;11.40;99.90;;;;;;5034709;28;20074;-78
2023/03/21 03:01:02;;;;;;;19.00;7.88;;;11.50;99.90;;;;;;5022223;28;20510;-77
2023/03/21 03:03:27;;;;;;;21.08;8.23;;;11.50;99.90;;;;;;5017346;28;20053;-81
2023/03/21 03:05:56;;;;;;;15.88;7.93;;;11.50;99.90;;;;;;5036968;28;20505;-78
2023/03/21 03:08:41;;;;;;;22.63;7.85;;;11.50;99.90;;;;;;5019076;28;20017;-80
2023/03/21 03:11:24;;;;;;;20.48;7.85;;;11.60;99.90;;;;;;5017235;28;20044;-80
2023/03/21 03:14:05;;;;;;;20.35;7.40;;;11.50;99.90;;;;;;5018611;28;20045;-80
2023/03/21 03:16:53;;;;;;;20.63;7.97;;;11.50;99.90;;;;;;5035584;28;20028;-78
2023/03/21 03:19:27;;;;;;;25.38;7.10;;;11.50;99.90;;;;;;5035631;28;20035;-80
2023/03/21 03:22:02;;;;;;;14.23;7.03;;;11.50;99.90;;;;;;5027976;28;20387;-80
2023/03/21 03:24:40;;;;;;;18.45;7.60;;;11.50;99.90;;;;;;5037877;28;20029;-79
2023/03/21 03:27:16;;;;;;;24.88;8.13;;;11.50;99.90;;;;;;5059104;28;20053;-79
2023/03/21 03:29:45;;;;;;;24.10;8.32;;;11.50;99.90;;;;;;5195740;22;20056;-79
2023/03/21 03:32:17;;;;;;;22.13;7.50;;;11.60;99.90;;;;;;5090436;28;20345;-79
2023/03/21 03:34:49;;;;;;;21.10;7.75;;;11.50;99.90;;;;;;5094818;28;20020;-80
2023/03/21 03:37:19;;;;;;;26.75;8.02;;;11.50;99.90;;;;;;5087095;28;20080;-80
2023/03/21 03:39:57;;;;;;;20.02;7.90;;;11.40;99.90;;;;;;5089573;28;20054;-80
2023/03/21 03:42:30;;;;;;;19.38;8.32;;;11.40;99.90;;;;;;5070001;28;20475;-80
2023/03/21 03:44:56;;;;;;;23.67;7.55;;;11.40;99.90;;;;;;5061875;28;20492;-80
2023/03/21 03:47:41;;;;;;;23.00;9.10;;;11.40;99.90;;;;;;5064418;28;20050;-80
2023/03/21 03:50:16;;;;;;;21.92;7.55;;;11.30;99.90;;;;;;5064709;28;20038;-80
2023/03/21 03:52:48;;;;;;;22.70;8.32;;;11.30;99.90;;;;;;5061234;28;20194;-79
2023/03/21 03:55:17;;;;;;;26.25;8.32;;;11.30;99.90;;;;;;5062045;28;20033;-80
2023/03/21 03:57:43;;;;;;;17.77;7.72;;;11.30;99.90;;;;;;5057811;28;20057;-80
2023/03/21 04:00:11;;;;;;;25.27;8.38;;;11.30;99.90;;;;;;5060226;28;20035;-80
2023/03/21 04:02:37;;;;;;;21.23;8.32;;;11.20;99.90;;;;;;5060127;28;20020;-80
2023/03/21 04:05:04;;;;;;;23.50;7.95;;;11.20;99.90;;;;;;5057973;28;20519;-80
2023/03/21 04:07:30;;;;;;;23.67;8.68;;;11.10;99.90;;;;;;5062323;28;20137;-78
2023/03/21 04:09:56;;;;;;;26.33;9.10;;;11.10;99.90;;;;;;5059149;28;20083;-78
2023/03/21 04:12:22;;;;;;;25.50;8.77;;;11.10;99.90;;;;;;5055092;28;20070;-78
2023/03/21 04:14:49;;;;;;;19.15;8.75;;;11.00;99.90;;;;;;5059261;28;20398;-81
2023/03/21 04:17:17;;;;;;;21.67;9.02;;;11.00;99.90;;;;;;5056391;28;20024;-79
2023/03/21 04:19:45;;;;;;;18.83;8.70;;;11.10;99.90;;;;;;5059548;28;20032;-79
2023/03/21 04:22:12;;;;;;;29.90;9.38;;;11.00;99.90;;;;;;5060727;28;20124;-80
2023/03/21 04:24:41;;;;;;;30.08;9.05;;;11.10;99.90;;;;;;5065278;28;20056;-81
2023/03/21 04:27:06;;;;;;;23.17;8.95;;;11.00;99.90;;;;;;5060665;28;20060;-80
2023/03/21 04:29:32;;;;;;;22.02;9.02;;;11.10;99.90;;;;;;5063606;28;20087;-80
2023/03/21 04:31:58;;;;;;;26.52;8.95;;;11.00;99.90;;;;;;5066343;28;20038;-80
2023/03/21 04:34:26;;;;;;;22.73;8.30;;;11.00;99.90;;;;;;5062026;28;20362;-80
2023/03/21 04:36:53;;;;;;;22.08;9.65;;;11.10;99.90;;;;;;5063146;28;20021;-80
2023/03/21 04:39:19;;;;;;;18.92;9.10;;;11.00;99.90;;;;;;5062612;28;20469;-80
2023/03/21 04:41:45;;;;;;;17.77;8.70;;;11.10;99.90;;;;;;5066221;28;20025;-80
2023/03/21 04:44:13;;;;;;;31.83;9.38;;;11.10;99.90;;;;;;5063258;28;20025;-80
2023/03/21 04:46:39;;;;;;;22.40;9.20;;;11.10;99.90;;;;;;5066178;28;20016;-80
2023/03/21 04:49:06;;;;;;;22.95;9.00;;;11.10;99.90;;;;;;5065985;28;20074;-82
2023/03/21 04:51:32;;;;;;;26.08;9.60;;;11.20;99.90;;;;;;5062644;28;20384;-81
2023/03/21 04:53:58;;;;;;;20.80;9.23;;;11.20;99.90;;;;;;5070417;28;20020;-80
2023/03/21 04:56:32;;;;;;;24.25;10.18;;;11.20;99.90;;;;;;5071939;28;20028;-80
2023/03/21 04:58:59;;;;;;;26.30;9.32;;;11.20;99.90;;;;;;5059703;28;20035;-82
2023/03/21 05:01:29;;;;;;;23.05;9.02;;;11.20;99.90;;;;;;5065766;28;20024;-80
2023/03/21 05:03:58;;;;;;;22.20;9.52;;;11.20;99.90;;;;;;5061607;28;20024;-80
2023/03/21 05:06:25;;;;;;;22.48;8.93;;;11.10;99.90;;;;;;5067108;28;20021;-80
2023/03/21 05:08:51;;;;;;;18.45;8.77;;;11.10;99.90;;;;;;5065641;28;20021;-80
2023/03/21 05:11:16;;;;;;;20.13;8.45;;;11.00;99.90;;;;;;5065883;28;20354;-80
2023/03/21 05:13:42;;;;;;;20.98;9.20;;;11.00;99.90;;;;;;5066409;28;20575;-80
2023/03/21 05:16:08;;;;;;;19.85;8.35;;;11.00;99.90;;;;;;5068642;28;20099;-80
2023/03/21 05:18:37;;;;;;;25.13;9.45;;;10.90;99.90;;;;;;5059688;28;20158;-80
2023/03/21 05:21:06;;;;;;;19.55;8.30;;;10.80;99.90;;;;;;5067862;28;20021;-82
2023/03/21 05:23:37;;;;;;;16.88;8.65;;;10.80;99.90;;;;;;5065757;28;20032;-80
2023/03/21 05:26:06;;;;;;;27.55;8.75;;;10.60;99.90;;;;;;5067195;28;20107;-80
2023/03/21 05:28:35;;;;;;;20.80;8.98;;;10.50;99.90;;;;;;5066034;28;20028;-80
2023/03/21 05:31:05;;;;;;;23.20;8.10;;;10.40;99.90;;;;;;5064619;28;20471;-80
2023/03/21 05:33:31;;;;;;;22.33;9.38;;;10.30;99.90;;;;;;5068175;28;20066;-80
2023/03/21 05:35:57;;;;;;;21.52;8.82;;;10.30;99.90;;;;;;5067010;28;20145;-81
2023/03/21 05:38:25;;;;;;;19.63;8.57;;;10.20;99.90;;;;;;5067159;28;20021;-79
2023/03/21 05:40:53;;;;;;;22.63;10.07;;;10.30;99.90;;;;;;5064371;28;20433;-82
2023/03/21 05:43:19;;;;;;;25.42;10.27;;;10.20;99.90;;;;;;5063079;28;20060;-80
2023/03/21 05:45:44;;;;;;;25.88;10.13;;;10.20;99.90;;;;;;5064240;28;20457;-80
2023/03/21 05:48:10;;;;;;;22.17;9.05;;;10.20;99.90;;;;;;5067382;28;20027;-80
2023/03/21 05:50:40;;;;;;;25.15;9.88;;;10.20;99.90;;;;;;5067909;28;20051;-81
2023/03/21 05:53:06;;;;;;;25.00;10.45;;;10.10;99.90;;;;;;5064996;28;20029;-81
2023/03/21 05:55:31;;;;;;;22.30;10.60;;;10.10;99.90;;;;;;5065299;28;20067;-81
2023/03/21 05:57:57;;;;;;;24.83;10.63;;;10.10;99.90;;;;;;5069119;28;20098;-81
2023/03/21 06:00:23;;;;;;;25.80;9.48;;;10.10;99.90;;;;;;5069471;28;20106;-81
2023/03/21 06:02:51;;;;;;;22.25;9.48;;;10.00;99.90;;;;;;5067480;28;20017;-81
2023/03/21 06:05:17;;;;;;;30.88;11.40;;;10.10;99.90;;;;;;5067272;28;20021;-81
2023/03/21 06:07:42;;;;;;;26.67;9.55;;;10.10;99.90;;;;;;5064681;28;20044;-81
2023/03/21 06:10:09;;;;;;;25.02;10.05;;;10.20;99.90;;;;;;5064556;28;20123;-80
2023/03/21 06:12:35;;;;;;;25.35;10.32;;;10.20;99.90;;;;;;5066578;28;20020;-83
2023/03/21 06:15:04;;;;;;;28.45;10.30;;;10.20;99.90;;;;;;5066599;28;20043;-83
2023/03/21 06:17:30;;;;;;;32.45;10.73;;;10.20;99.90;;;;;;5062616;28;20024;-84
2023/03/21 06:19:57;;;;;;;23.42;9.98;;;10.20;99.90;;;;;;5059028;28;20099;-81
2023/03/21 06:22:22;;;;;;;32.80;11.00;;;10.30;99.90;;;;;;5064789;28;20614;-82
2023/03/21 06:24:50;;;;;;;21.10;9.93;;;10.30;99.90;;;;;;5070178;28;20234;-82
2023/03/21 06:27:16;;;;;;;26.35;9.55;;;10.30;99.90;;;;;;5064786;28;20025;-82
2023/03/21 06:29:42;;;;;;;22.33;9.55;;;10.30;99.90;;;;;;5067791;28;20048;-82
2023/03/21 06:32:07;;;;;;;28.02;9.30;;;10.30;99.90;;;;;;5062140;28;20036;-82
2023/03/21 06:34:33;;;;;;;25.02;9.93;;;10.40;99.90;;;;;;5063436;28;20097;-82
2023/03/21 06:36:59;;;;;;;28.38;8.57;;;10.40;99.90;;;;;;5064816;28;20055;-82
2023/03/21 06:39:26;;;;;;;19.65;9.70;;;10.50;99.90;;;;;;5066097;28;20025;-82
2023/03/21 06:41:52;;;;;;;20.92;8.65;;;10.40;99.90;;;;;;5067409;28;20028;-81
2023/03/21 06:44:18;;;;;;;23.92;9.70;;;10.50;99.90;;;;;;5065908;28;20078;-82
2023/03/21 06:46:43;;;;;;;21.38;8.93;;;10.50;99.90;;;;;;5064052;28;20055;-82
2023/03/21 06:49:11;;;;;;;25.42;9.02;;;10.60;99.90;;;;;;5065411;28;20055;-81
2023/03/21 06:51:37;;;;;;;18.25;9.10;;;10.50;99.90;;;;;;5068966;28;20377;-82
2023/03/21 06:54:02;;;;;;;23.98;8.63;;;10.50;99.90;;;;;;5066973;28;20031;-82
2023/03/21 06:56:28;;;;;;;25.67;8.05;;;10.50;99.90;;;;;;5064883;28;20052;-81
2023/03/21 06:58:54;;;;;;;26.52;8.60;;;10.50;99.90;;;;;;5064146;28;20024;-82
2023/03/21 07:01:19;;;;;;;19.73;8.68;;;10.50;99.90;;;;;;5065628;28;20070;-82
2023/03/21 07:03:46;;;;;;;23.98;8.88;;;10.60;99.90;;;;;;5067853;28;20029;-81
2023/03/21 07:06:12;;;;;;;26.67;9.00;;;10.60;99.90;;;;;;5067702;28;20481;-81
2023/03/21 07:08:39;;;;;;;22.02;8.95;;;10.60;99.90;;;;;;5067404;28;20052;-82
2023/03/21 07:11:05;;;;;;;20.95;7.88;;;10.70;99.90;;;;;;5067146;28;20089;-82
2023/03/21 07:13:31;;;;;;;24.60;8.65;;;10.70;99.90;;;;;;5066166;28;20033;-81
2023/03/21 07:15:57;;;;;;;27.05;8.23;;;10.80;99.90;;;;;;5068349;28;20291;-81
2023/03/21 07:18:23;;;;;;;27.65;8.57;;;10.80;99.90;;;;;;5064304;28;20016;-82
2023/03/21 07:20:50;;;;;;;28.70;8.50;;;10.90;99.90;;;;;;5064205;28;20027;-81
2023/03/21 07:23:20;;;;;;;28.40;8.10;;;10.80;99.90;;;;;;5063124;28;20112;-81
2023/03/21 07:25:50;;;;;;;25.15;8.23;;;10.90;99.90;;;;;;5065189;28;20042;-81
2023/03/21 07:28:19;;;;;;;21.40;8.18;;;10.90;99.90;;;;;;5065908;28;20020;-82
2023/03/21 07:30:50;;;;;;;24.75;8.18;;;10.80;99.90;;;;;;5065378;28;20035;-81
2023/03/21 07:33:16;;;;;;;18.50;7.13;;;10.90;99.90;;;;;;5066184;28;20091;-81
2023/03/21 07:35:41;;;;;;;15.35;8.02;;;10.90;99.90;;;;;;5062455;28;20400;-82
2023/03/21 07:38:07;;;;;;;25.42;8.07;;;10.90;99.90;;;;;;5069682;28;20036;-82
2023/03/21 07:40:32;;;;;;;19.23;8.05;;;10.90;99.90;;;;;;5066139;28;20489;-81
2023/03/21 07:42:58;;;;;;;18.48;7.63;;;10.80;99.90;;;;;;5063236;28;20024;-82
2023/03/21 07:45:25;;;;;;;25.52;8.02;;;10.90;99.90;;;;;;5068494;28;20119;-81
2023/03/21 07:47:52;;;;;;;24.52;7.03;;;10.90;99.90;;;;;;5063783;28;20013;-81
2023/03/21 07:50:18;;;;;;;14.43;7.07;;;11.00;99.90;;;;;;5066102;28;20040;-82
2023/03/21 07:52:43;;;;;;;18.55;6.63;;;11.00;99.90;;;;;;5066607;28;20412;-81
2023/03/21 07:55:10;;;;;;;22.17;7.07;;;11.00;99.90;;;;;;5063989;28;20193;-81
2023/03/21 07:57:38;;;;;;;20.90;7.28;;;11.10;99.90;;;;;;5052406;28;20028;-82
2023/03/21 08:00:05;;;;;;;18.98;6.80;;;11.20;99.90;;;;;;5061554;28;20036;-81
2023/03/21 08:02:31;;;;;;;21.73;6.60;;;11.30;99.90;;;;;;5064186;28;20013;-80
2023/03/21 08:04:57;;;;;;;21.17;7.35;;;11.30;99.90;;;;;;5065849;28;20016;-81
2023/03/21 08:07:23;;;;;;;15.82;7.00;;;11.30;99.90;;;;;;5063245;28;20486;-81
2023/03/21 08:09:51;;;;;;;19.63;7.00;;;11.30;99.90;;;;;;5064931;28;20016;-81
2023/03/21 08:12:19;;;;;;;16.98;7.10;;;11.30;99.90;;;;;;5064767;28;20021;-81
2023/03/21 08:14:45;;;;;;;23.23;7.35;;;11.20;99.90;;;;;;5061808;28;20077;-80
2023/03/21 08:17:12;;;;;;;16.50;7.15;;;11.30;99.90;;;;;;5063787;28;20032;-80
2023/03/21 08:19:38;;;;;;;18.90;7.32;;;11.30;99.90;;;;;;5064368;28;20236;-79
2023/03/21 08:22:05;;;;;;;23.35;7.65;;;11.40;99.90;;;;;;5066564;28;20029;-80
2023/03/21 08:24:32;;;;;;;17.52;7.18;;;11.40;99.90;;;;;;5062392;28;20078;-79
2023/03/21 08:26:59;;;;;;;17.85;6.50;;;11.50;99.90;;;;;;5063197;28;20131;-78
2023/03/21 08:29:25;;;;;;;21.40;6.88;;;11.40;99.90;;;;;;5059091;28;20028;-80
2023/03/21 08:31:51;;;;;;;18.63;7.35;;;11.40;99.90;;;;;;5068071;28;20020;-79
2023/03/21 08:37:12;;;;;;;15.60;8.05;;;11.30;99.90;;;;;;5063913;28;20041;-78
2023/03/21 08:39:40;;;;;;;26.38;8.15;;;11.30;99.90;;;;;;5066314;28;20013;-77
2023/03/21 08:42:06;;;;;;;29.23;8.30;;;11.20;99.90;;;;;;5066456;28;20508;-81
2023/03/21 08:44:34;;;;;;;24.98;7.75;;;11.40;99.90;;;;;;5063146;28;20032;-82
2023/03/21 08:47:02;;;;;;;19.60;7.00;;;11.30;99.90;;;;;;5066390;28;20029;-82
2023/03/21 08:49:27;;;;;;;23.50;8.40;;;11.30;99.90;;;;;;5063389;28;20737;-83
2023/03/21 08:51:56;;;;;;;19.55;6.93;;;11.30;99.90;;;;;;5064266;28;20397;-79
2023/03/21 08:54:24;;;;;;;17.17;6.95;;;11.20;99.90;;;;;;5063109;28;20457;-81
2023/03/21 08:56:50;;;;;;;28.35;7.03;;;11.20;99.90;;;;;;5081508;28;20024;-81
2023/03/21 08:59:17;;;;;;;20.08;6.72;;;11.20;99.90;;;;;;5067921;28;20078;-81
2023/03/21 09:01:45;;;;;;;19.58;7.32;;;11.20;99.90;;;;;;5066334;28;20475;-82
2023/03/21 09:04:11;;;;;;;16.60;7.30;;;11.30;99.90;;;;;;5067180;28;20025;-82
2023/03/21 09:06:39;;;;;;;16.73;6.90;;;11.40;99.90;;;;;;5068120;28;20029;-82
2023/03/21 09:09:07;;;;;;;21.30;7.07;;;11.30;99.90;;;;;;5063982;28;20020;-80
2023/03/21 09:11:33;;;;;;;19.13;7.80;;;11.30;99.90;;;;;;5062907;28;20031;-81
2023/03/21 09:14:00;;;;;;;20.55;7.25;;;11.40;99.90;;;;;;5064986;28;20021;-82
2023/03/21 09:16:26;;;;;;;21.77;7.10;;;11.40;99.90;;;;;;5068315;28;20023;-81
2023/03/21 09:18:55;;;;;;;19.80;6.60;;;11.40;99.90;;;;;;5068789;28;20020;-80
2023/03/21 09:21:22;;;;;;;25.20;8.18;;;11.40;99.90;;;;;;5068136;28;20029;-80
2023/03/21 09:23:54;;;;;;;24.58;6.28;;;11.60;99.90;;;;;;5068094;28;20035;-80
2023/03/21 09:26:20;;;;;;;18.75;6.68;;;11.50;99.90;;;;;;5067043;28;20021;-82
2023/03/21 09:28:46;;;;;;;21.15;6.75;;;11.40;99.90;;;;;;5067657;28;20028;-81
2023/03/21 09:31:15;;;;;;;15.00;6.10;;;11.40;99.90;;;;;;5067503;28;20025;-82
2023/03/21 09:33:44;;;;;;;19.60;6.63;;;11.50;99.90;;;;;;5056154;28;20025;-82
2023/03/21 09:36:12;;;;;;;15.30;6.13;;;11.70;99.90;;;;;;5078011;28;20024;-81
2023/03/21 09:38:44;;;;;;;18.00;6.88;;;11.70;99.90;;;;;;5078223;28;20047;-78
2023/03/21 09:41:31;;;;;;;20.95;6.40;;;11.70;99.90;;;;;;5074301;28;20029;-81
2023/03/21 09:44:33;;;;;;;19.33;7.18;;;11.60;99.90;;;;;;5079536;28;20024;-82
2023/03/21 09:47:27;;;;;;;10.82;5.60;;;11.70;99.90;;;;;;5073860;28;20072;-81
2023/03/21 09:49:58;;;;;;;17.15;6.03;;;11.50;99.90;;;;;;5088352;28;20042;-82
2023/03/21 09:52:34;;;;;;;12.38;6.55;;;11.60;99.90;;;;;;5091894;28;20061;-82
2023/03/21 09:55:01;;;;;;;11.05;5.68;;;11.70;99.90;;;;;;5093094;28;20087;-83
2023/03/21 09:57:27;;;;;;;15.70;6.78;;;11.80;99.90;;;;;;5081767;28;20043;-81
2023/03/21 09:59:55;;;;;;;13.05;5.97;;;11.80;99.90;;;;;;5074155;28;20016;-81
2023/03/21 10:02:39;;;;;;;16.85;5.97;;;12.00;99.90;;;;;;5084139;28;20096;-83
2023/03/21 10:05:20;;;;;;;11.05;6.18;;;12.10;99.90;;;;;;5083714;28;20017;-81
2023/03/21 10:08:03;;;;;;;12.25;5.50;;;12.20;99.90;;;;;;5069143;28;20074;-82
2023/03/21 10:10:38;;;;;;;21.67;6.47;;;12.20;99.90;;;;;;5063331;28;20102;-81
2023/03/21 10:13:12;;;;;;;14.68;5.25;;;12.20;99.90;;;;;;5059345;28;20444;-81
2023/03/21 10:15:37;;;;;;;13.25;5.28;;;12.20;99.90;;;;;;5068313;28;20035;-81
2023/03/21 10:18:12;;;;;;;11.43;5.85;;;12.10;99.90;;;;;;5063057;28;20263;-81
2023/03/21 10:20:41;;;;;;;17.55;6.20;;;12.10;99.90;;;;;;5064993;28;20020;-80
2023/03/21 10:23:13;;;;;;;15.80;5.40;;;12.10;99.90;;;;;;5068060;28;20103;-80
2023/03/21 10:25:47;;;;;;;12.48;5.10;;;12.10;99.90;;;;;;5067684;28;20484;-81
2023/03/21 10:28:19;;;;;;;13.68;5.60;;;12.10;99.90;;;;;;5060975;28;20036;-80
2023/03/21 10:30:55;;;;;;;10.93;4.72;;;12.00;99.90;;;;;;5066746;28;20028;-81
2023/03/21 10:33:27;;;;;;;10.27;5.43;;;12.00;99.90;;;;;;5063998;28;20043;-80
2023/03/21 10:35:58;;;;;;;16.45;5.15;;;12.10;99.90;;;;;;5064093;28;20031;-80
2023/03/21 10:38:25;;;;;;;13.82;4.85;;;12.00;99.90;;;;;;5068532;28;20024;-79
2023/03/21 10:40:52;;;;;;;17.55;6.13;;;12.10;99.90;;;;;;5065419;28;20039;-80
2023/03/21 10:43:33;;;;;;;14.23;5.75;;;12.20;99.90;;;;;;5067108;28;20519;-80
2023/03/21 10:46:06;;;;;;;16.00;5.13;;;12.40;99.90;;;;;;5063932;28;20132;-79
2023/03/21 10:48:36;;;;;;;15.43;5.15;;;12.50;99.90;;;;;;5066123;28;20036;-80
2023/03/21 10:51:07;;;;;;;9.48;5.20;;;12.60;99.90;;;;;;5067134;28;20028;-80
2023/03/21 10:53:38;;;;;;;14.52;5.45;;;12.70;99.90;;;;;;5066901;28;20456;-80
2023/03/21 10:56:10;;;;;;;10.88;5.15;;;12.80;99.90;;;;;;5065638;28;20391;-80
2023/03/21 10:58:43;;;;;;;11.00;4.68;;;13.00;99.90;;;;;;5069210;28;20293;-80
2023/03/21 11:01:14;;;;;;;12.85;5.60;;;13.30;99.90;;;;;;5067668;28;20035;-80
2023/03/21 11:03:45;;;;;;;10.32;4.60;;;13.40;99.90;;;;;;5066923;28;20391;-80
2023/03/21 11:06:30;;;;;;;7.88;4.68;;;13.30;99.90;;;;;;5067602;28;20130;-80
2023/03/21 11:09:26;;;;;;;9.32;4.90;;;13.40;99.90;;;;;;5061611;28;20028;-80
2023/03/21 11:12:04;;;;;;;15.50;5.38;;;13.60;99.90;;;;;;5061285;28;20124;-80
2023/03/21 11:14:37;;;;;;;15.07;5.18;;;13.50;99.90;;;;;;5062549;28;20061;-81
2023/03/21 11:17:15;;;;;;;15.93;5.22;;;13.60;99.90;;;;;;5065029;28;20074;-80
2023/03/21 11:19:49;;;;;;;16.08;5.88;;;13.60;99.90;;;;;;5062473;28;20024;-81
2023/03/21 11:22:17;;;;;;;14.70;5.35;;;13.60;99.90;;;;;;5060328;28;20043;-80
2023/03/21 11:24:50;;;;;;;16.85;5.70;;;13.60;99.90;;;;;;5064447;28;20025;-80
2023/03/21 11:27:15;;;;;;;12.20;5.25;;;13.50;99.90;;;;;;5082190;28;20372;-79
2023/03/21 11:29:54;;;;;;;12.00;5.50;;;13.60;99.90;;;;;;5065820;28;20150;-79
2023/03/21 11:32:34;;;;;;;15.18;6.30;;;13.40;99.90;;;;;;5059346;28;20032;-81
2023/03/21 11:35:04;;;;;;;12.07;6.03;;;13.40;99.90;;;;;;5063270;28;20093;-81
2023/03/21 11:37:35;;;;;;;16.35;7.05;;;13.40;99.90;;;;;;5062892;28;20021;-82
2023/03/21 11:40:14;;;;;;;14.48;5.93;;;13.40;99.90;;;;;;5064010;28;20035;-81
2023/03/21 11:42:42;;;;;;;13.60;7.32;;;13.30;99.90;;;;;;5063207;28;20032;-81
2023/03/21 11:45:15;;;;;;;13.75;6.78;;;13.20;99.90;;;;;;5065829;28;20090;-81
2023/03/21 11:47:40;;;;;;;12.57;6.63;;;13.10;99.90;;;;;;5059209;28;20027;-80
2023/03/21 11:50:17;;;;;;;12.40;7.15;;;13.10;99.90;;;;;;5055182;28;20392;-82
2023/03/21 11:53:10;;;;;;;11.35;6.32;;;13.00;99.90;;;;;;5066744;28;20054;-83
2023/03/21 11:56:03;;;;;;;21.92;7.72;;;13.00;99.90;;;;;;5062016;28;20056;-84
2023/03/21 11:58:45;;;;;;;13.10;6.53;;;13.10;99.90;;;;;;5075599;28;20024;-83
2023/03/21 12:01:16;;;;;;;15.85;7.20;;;13.00;99.90;;;;;;5063433;28;20080;-85
2023/03/21 12:03:46;;;;;;;13.65;6.57;;;13.00;99.90;;;;;;5070368;28;20027;-84
2023/03/21 12:06:51;;;;;;;21.48;7.45;;;13.20;99.90;;;;;;5083218;28;20112;-85
2023/03/21 12:10:01;;;;;;;21.88;7.10;;;13.40;99.90;;;;;;5065899;28;20147;-83
2023/03/21 12:12:36;;;;;;;18.67;7.25;;;13.40;99.90;;;;;;5047785;28;20337;-83
2023/03/21 12:15:46;;;;;;;17.00;6.50;;;13.30;99.90;;;;;;5065832;28;20020;-84
2023/03/21 12:18:35;;;;;;;19.58;6.25;;;13.40;99.90;;;;;;5061510;28;20401;-78
2023/03/21 12:21:19;;;;;;;12.90;6.70;;;13.50;99.90;;;;;;5064975;28;20026;-85
2023/03/21 12:24:19;;;;;;;17.90;7.88;;;13.70;99.90;;;;;;5063839;28;20059;-83
2023/03/21 12:27:16;;;;;;;18.35;7.38;;;13.90;99.90;;;;;;5062155;28;20518;-83
2023/03/21 12:29:52;;;;;;;18.67;7.28;;;14.00;99.90;;;;;;5066540;28;20488;-83
2023/03/21 12:32:26;;;;;;;13.85;6.22;;;14.00;99.90;;;;;;5063289;28;20021;-80
2023/03/21 12:35:08;;;;;;;21.90;7.05;;;14.00;99.90;;;;;;5059907;28;20024;-80
2023/03/21 12:37:48;;;;;;;17.52;6.28;;;14.00;99.90;;;;;;5063078;28;20666;-79
2023/03/21 12:40:42;;;;;;;13.70;6.60;;;14.20;99.90;;;;;;5060520;28;20044;-80
2023/03/21 12:43:45;;;;;;;11.90;6.18;;;14.20;99.90;;;;;;5059600;28;20024;-80
2023/03/21 12:46:17;;;;;;;15.05;6.53;;;14.40;99.90;;;;;;5062447;28;20118;-80
2023/03/21 12:48:51;;;;;;;;;;;14.40;99.90;;;;;;5062288;28;20021;-81
2023/03/21 12:51:28;;;;;;;12.90;6.45;;;14.40;99.90;;;;;;5061168;28;19908;-80
2023/03/21 12:54:22;;;;;;;10.32;5.57;;;14.30;99.90;;;;;;5201896;22;20052;-81
2023/03/21 12:56:54;;;;;;;12.27;6.05;;;14.30;99.90;;;;;;5076540;28;20388;-79
2023/03/21 12:59:28;;;;;;;11.30;5.90;;;14.30;99.90;;;;;;5079982;28;20474;-80
2023/03/21 13:02:00;;;;;;;10.90;5.68;;;14.30;99.90;;;;;;5079023;28;20027;-79
2023/03/21 13:04:50;;;;;;;12.95;5.72;;;14.60;99.90;;;;;;5076579;28;20020;-82